sensor_id;sensor_type;location;lat;lon;timestamp;P1;durP1;ratioP1;P2;durP2;ratioP2
22425;SDS011;11380;50.822;15.790;2022-09-02T00:03:35;47.83;;;44.23;;
22425;SDS011;11380;50.822;15.790;2022-09-02T00:08:41;48.53;;;44.73;;
22425;SDS011;11380;50.822;15.790;2022-09-02T00:13:47;48.17;;;44.27;;
22425;SDS011;11380;50.822;15.790;2022-09-02T00:18:54;47.77;;;44.17;;
22425;SDS011;11380;50.822;15.790;2022-09-02T00:24:01;47.85;;;44.25;;
22425;SDS011;11380;50.822;15.790;2022-09-02T00:29:09;47.85;;;44.20;;
22425;SDS011;11380;50.822;15.790;2022-09-02T00:34:17;47.73;;;44.17;;
22425;SDS011;11380;50.822;15.790;2022-09-02T00:39:23;47.00;;;43.50;;
22425;SDS011;11380;50.822;15.790;2022-09-02T00:44:29;48.30;;;44.55;;
22425;SDS011;11380;50.822;15.790;2022-09-02T00:49:35;48.23;;;44.43;;
22425;SDS011;11380;50.822;15.790;2022-09-02T00:54:44;48.43;;;44.73;;
22425;SDS011;11380;50.822;15.790;2022-09-02T01:05:22;47.37;;;43.67;;
22425;SDS011;11380;50.822;15.790;2022-09-02T01:10:30;47.17;;;43.63;;
22425;SDS011;11380;50.822;15.790;2022-09-02T01:15:44;47.20;;;43.60;;
22425;SDS011;11380;50.822;15.790;2022-09-02T01:20:47;47.10;;;43.60;;
22425;SDS011;11380;50.822;15.790;2022-09-02T01:25:52;47.40;;;43.87;;
22425;SDS011;11380;50.822;15.790;2022-09-02T01:30:58;47.57;;;43.97;;
22425;SDS011;11380;50.822;15.790;2022-09-02T01:36:04;47.27;;;43.77;;
22425;SDS011;11380;50.822;15.790;2022-09-02T01:41:11;46.85;;;43.35;;
22425;SDS011;11380;50.822;15.790;2022-09-02T01:46:18;47.03;;;43.50;;
22425;SDS011;11380;50.822;15.790;2022-09-02T01:51:24;47.37;;;43.67;;
22425;SDS011;11380;50.822;15.790;2022-09-02T01:56:29;47.43;;;43.83;;
22425;SDS011;11380;50.822;15.790;2022-09-02T02:01:35;47.43;;;43.93;;
22425;SDS011;11380;50.822;15.790;2022-09-02T02:06:41;47.70;;;44.13;;
22425;SDS011;11380;50.822;15.790;2022-09-02T02:11:49;47.14;;;43.70;;
22425;SDS011;11380;50.822;15.790;2022-09-02T02:16:55;46.93;;;43.33;;
22425;SDS011;11380;50.822;15.790;2022-09-02T02:22:00;46.57;;;43.17;;
22425;SDS011;11380;50.822;15.790;2022-09-02T02:27:06;46.20;;;42.83;;
22425;SDS011;11380;50.822;15.790;2022-09-02T02:32:11;46.93;;;43.43;;
22425;SDS011;11380;50.822;15.790;2022-09-02T02:37:19;47.40;;;43.90;;
22425;SDS011;11380;50.822;15.790;2022-09-02T02:42:26;48.87;;;45.07;;
22425;SDS011;11380;50.822;15.790;2022-09-02T02:47:31;47.37;;;43.87;;
22425;SDS011;11380;50.822;15.790;2022-09-02T02:52:38;46.30;;;42.97;;
22425;SDS011;11380;50.822;15.790;2022-09-02T02:57:44;47.33;;;43.63;;
22425;SDS011;11380;50.822;15.790;2022-09-02T03:02:54;47.00;;;43.50;;
22425;SDS011;11380;50.822;15.790;2022-09-02T03:08:01;46.57;;;43.17;;
22425;SDS011;11380;50.822;15.790;2022-09-02T03:13:09;46.45;;;42.95;;
22425;SDS011;11380;50.822;15.790;2022-09-02T03:18:15;47.13;;;43.53;;
22425;SDS011;11380;50.822;15.790;2022-09-02T03:23:21;46.73;;;43.33;;
22425;SDS011;11380;50.822;15.790;2022-09-02T03:28:26;46.05;;;42.70;;
22425;SDS011;11380;50.822;15.790;2022-09-02T03:33:33;46.50;;;43.00;;
22425;SDS011;11380;50.822;15.790;2022-09-02T03:38:39;46.07;;;42.73;;
22425;SDS011;11380;50.822;15.790;2022-09-02T03:43:44;46.43;;;43.03;;
22425;SDS011;11380;50.822;15.790;2022-09-02T03:48:50;46.63;;;43.23;;
22425;SDS011;11380;50.822;15.790;2022-09-02T03:53:55;46.27;;;42.90;;
22425;SDS011;11380;50.822;15.790;2022-09-02T03:59:02;46.50;;;43.02;;
22425;SDS011;11380;50.822;15.790;2022-09-02T04:04:10;47.28;;;43.80;;
22425;SDS011;11380;50.822;15.790;2022-09-02T04:09:15;46.55;;;43.15;;
22425;SDS011;11380;50.822;15.790;2022-09-02T04:14:20;47.17;;;43.67;;
22425;SDS011;11380;50.822;15.790;2022-09-02T04:19:26;46.98;;;43.40;;
22425;SDS011;11380;50.822;15.790;2022-09-02T04:24:31;46.33;;;42.93;;
22425;SDS011;11380;50.822;15.790;2022-09-02T04:29:36;46.27;;;42.67;;
22425;SDS011;11380;50.822;15.790;2022-09-02T04:34:42;45.77;;;42.47;;
22425;SDS011;11380;50.822;15.790;2022-09-02T04:39:49;45.70;;;42.50;;
22425;SDS011;11380;50.822;15.790;2022-09-02T04:44:55;45.33;;;42.10;;
22425;SDS011;11380;50.822;15.790;2022-09-02T04:50:00;45.20;;;42.10;;
22425;SDS011;11380;50.822;15.790;2022-09-02T04:55:05;45.73;;;42.47;;
22425;SDS011;11380;50.822;15.790;2022-09-02T05:00:12;46.20;;;42.87;;
22425;SDS011;11380;50.822;15.790;2022-09-02T05:05:17;46.33;;;42.87;;
22425;SDS011;11380;50.822;15.790;2022-09-02T05:10:22;45.93;;;42.63;;
22425;SDS011;11380;50.822;15.790;2022-09-02T05:15:29;46.83;;;43.45;;
22425;SDS011;11380;50.822;15.790;2022-09-02T05:20:39;47.93;;;44.07;;
22425;SDS011;11380;50.822;15.790;2022-09-02T05:25:46;47.07;;;43.67;;
22425;SDS011;11380;50.822;15.790;2022-09-02T05:30:52;48.93;;;44.93;;
22425;SDS011;11380;50.822;15.790;2022-09-02T05:41:06;49.27;;;45.47;;
22425;SDS011;11380;50.822;15.790;2022-09-02T05:46:14;48.43;;;44.73;;
22425;SDS011;11380;50.822;15.790;2022-09-02T05:51:21;49.47;;;45.57;;
22425;SDS011;11380;50.822;15.790;2022-09-02T05:56:29;49.57;;;45.67;;
22425;SDS011;11380;50.822;15.790;2022-09-02T06:01:35;48.70;;;44.90;;
22425;SDS011;11380;50.822;15.790;2022-09-02T06:06:41;48.98;;;45.23;;
22425;SDS011;11380;50.822;15.790;2022-09-02T06:11:48;50.12;;;46.13;;
22425;SDS011;11380;50.822;15.790;2022-09-02T06:16:56;51.00;;;46.53;;
22425;SDS011;11380;50.822;15.790;2022-09-02T06:22:03;50.37;;;46.37;;
22425;SDS011;11380;50.822;15.790;2022-09-02T06:27:09;50.67;;;46.57;;
22425;SDS011;11380;50.822;15.790;2022-09-02T06:32:14;51.08;;;46.95;;
22425;SDS011;11380;50.822;15.790;2022-09-02T06:37:20;51.03;;;46.83;;
22425;SDS011;11380;50.822;15.790;2022-09-02T06:42:26;52.43;;;48.13;;
22425;SDS011;11380;50.822;15.790;2022-09-02T06:47:31;52.57;;;48.17;;
22425;SDS011;11380;50.822;15.790;2022-09-02T06:52:37;52.33;;;48.03;;
22425;SDS011;11380;50.822;15.790;2022-09-02T06:57:43;51.08;;;46.63;;
22425;SDS011;11380;50.822;15.790;2022-09-02T07:02:49;51.58;;;47.27;;
22425;SDS011;11380;50.822;15.790;2022-09-02T07:07:56;56.65;;;51.55;;
22425;SDS011;11380;50.822;15.790;2022-09-02T07:13:01;53.30;;;48.77;;
22425;SDS011;11380;50.822;15.790;2022-09-02T07:18:07;55.23;;;50.03;;
22425;SDS011;11380;50.822;15.790;2022-09-02T07:23:12;51.75;;;47.10;;
22425;SDS011;11380;50.822;15.790;2022-09-02T07:28:19;53.27;;;48.67;;
22425;SDS011;11380;50.822;15.790;2022-09-02T07:33:26;54.00;;;49.10;;
22425;SDS011;11380;50.822;15.790;2022-09-02T07:38:31;52.83;;;48.23;;
22425;SDS011;11380;50.822;15.790;2022-09-02T07:43:37;52.55;;;47.90;;
22425;SDS011;11380;50.822;15.790;2022-09-02T07:48:44;54.77;;;49.67;;
22425;SDS011;11380;50.822;15.790;2022-09-02T07:53:51;55.87;;;50.57;;
22425;SDS011;11380;50.822;15.790;2022-09-02T07:58:56;57.33;;;51.73;;
22425;SDS011;11380;50.822;15.790;2022-09-02T08:04:03;54.58;;;49.48;;
22425;SDS011;11380;50.822;15.790;2022-09-02T08:09:10;56.57;;;50.77;;
22425;SDS011;11380;50.822;15.790;2022-09-02T08:14:21;53.50;;;48.80;;
22425;SDS011;11380;50.822;15.790;2022-09-02T08:19:29;53.57;;;48.70;;
22425;SDS011;11380;50.822;15.790;2022-09-02T08:24:34;52.63;;;48.00;;
22425;SDS011;11380;50.822;15.790;2022-09-02T08:29:40;52.97;;;48.27;;
22425;SDS011;11380;50.822;15.790;2022-09-02T08:34:45;52.77;;;48.00;;
22425;SDS011;11380;50.822;15.790;2022-09-02T08:39:51;54.17;;;49.30;;
22425;SDS011;11380;50.822;15.790;2022-09-02T08:44:57;51.98;;;47.45;;
22425;SDS011;11380;50.822;15.790;2022-09-02T08:50:09;52.03;;;47.53;;
22425;SDS011;11380;50.822;15.790;2022-09-02T08:55:18;51.85;;;47.35;;
22425;SDS011;11380;50.822;15.790;2022-09-02T09:00:28;51.63;;;47.05;;
22425;SDS011;11380;50.822;15.790;2022-09-02T09:05:51;51.77;;;47.27;;
22425;SDS011;11380;50.822;15.790;2022-09-02T09:11:03;51.73;;;47.23;;
22425;SDS011;11380;50.822;15.790;2022-09-02T09:16:28;51.53;;;47.07;;
22425;SDS011;11380;50.822;15.790;2022-09-02T09:21:35;51.00;;;46.70;;
22425;SDS011;11380;50.822;15.790;2022-09-02T09:26:43;51.30;;;46.83;;
22425;SDS011;11380;50.822;15.790;2022-09-02T09:31:54;52.13;;;47.63;;
22425;SDS011;11380;50.822;15.790;2022-09-02T09:37:02;51.97;;;47.40;;
22425;SDS011;11380;50.822;15.790;2022-09-02T09:42:15;51.63;;;47.17;;
22425;SDS011;11380;50.822;15.790;2022-09-02T09:47:18;51.50;;;47.10;;
22425;SDS011;11380;50.822;15.790;2022-09-02T09:52:29;51.35;;;46.90;;
22425;SDS011;11380;50.822;15.790;2022-09-02T09:57:34;51.07;;;46.67;;
22425;SDS011;11380;50.822;15.790;2022-09-02T10:02:52;51.20;;;46.80;;
22425;SDS011;11380;50.822;15.790;2022-09-02T10:07:56;51.77;;;47.27;;
22425;SDS011;11380;50.822;15.790;2022-09-02T10:13:21;51.53;;;47.00;;
22425;SDS011;11380;50.822;15.790;2022-09-02T11:00:53;51.43;;;47.00;;
22425;SDS011;11380;50.822;15.790;2022-09-02T11:11:15;51.93;;;47.33;;
22425;SDS011;11380;50.822;15.790;2022-09-02T11:16:43;51.70;;;47.20;;
22425;SDS011;11380;50.822;15.790;2022-09-02T11:27:11;51.73;;;47.13;;
22425;SDS011;11380;50.822;15.790;2022-09-02T11:32:28;51.97;;;47.37;;
22425;SDS011;11380;50.822;15.790;2022-09-02T11:37:39;51.30;;;46.90;;
22425;SDS011;11380;50.822;15.790;2022-09-02T11:48:48;51.53;;;46.93;;
22425;SDS011;11380;50.822;15.790;2022-09-02T11:53:59;52.97;;;47.33;;
22425;SDS011;11380;50.822;15.790;2022-09-02T11:59:07;51.10;;;46.70;;
22425;SDS011;11380;50.822;15.790;2022-09-02T12:04:18;51.15;;;46.75;;
22425;SDS011;11380;50.822;15.790;2022-09-02T12:09:46;51.80;;;47.30;;
22425;SDS011;11380;50.822;15.790;2022-09-02T12:20:09;51.63;;;47.17;;
22425;SDS011;11380;50.822;15.790;2022-09-02T12:36:07;51.60;;;47.10;;
22425;SDS011;11380;50.822;15.790;2022-09-02T12:57:01;51.77;;;47.27;;
22425;SDS011;11380;50.822;15.790;2022-09-02T13:02:17;52.38;;;47.78;;
22425;SDS011;11380;50.822;15.790;2022-09-02T13:23:24;51.80;;;47.30;;
22425;SDS011;11380;50.822;15.790;2022-09-02T13:28:57;52.23;;;47.63;;
22425;SDS011;11380;50.822;15.790;2022-09-02T13:34:09;51.97;;;47.37;;
22425;SDS011;11380;50.822;15.790;2022-09-02T13:39:17;51.57;;;47.17;;
22425;SDS011;11380;50.822;15.790;2022-09-02T13:44:24;51.98;;;47.38;;
22425;SDS011;11380;50.822;15.790;2022-09-02T13:49:34;51.90;;;47.43;;
22425;SDS011;11380;50.822;15.790;2022-09-02T13:54:42;52.67;;;48.03;;
22425;SDS011;11380;50.822;15.790;2022-09-02T13:59:50;53.13;;;47.87;;
22425;SDS011;11380;50.822;15.790;2022-09-02T14:04:58;52.27;;;47.77;;
22425;SDS011;11380;50.822;15.790;2022-09-02T14:10:14;51.85;;;47.35;;
22425;SDS011;11380;50.822;15.790;2022-09-02T14:15:26;52.30;;;47.77;;
22425;SDS011;11380;50.822;15.790;2022-09-02T14:20:35;51.60;;;47.10;;
22425;SDS011;11380;50.822;15.790;2022-09-02T14:25:51;52.13;;;47.53;;
22425;SDS011;11380;50.822;15.790;2022-09-02T14:31:06;52.03;;;47.50;;
22425;SDS011;11380;50.822;15.790;2022-09-02T14:41:23;53.10;;;48.40;;
22425;SDS011;11380;50.822;15.790;2022-09-02T14:51:46;51.93;;;47.40;;
22425;SDS011;11380;50.822;15.790;2022-09-02T14:57:02;52.10;;;47.50;;
22425;SDS011;11380;50.822;15.790;2022-09-02T15:02:19;51.77;;;47.27;;
22425;SDS011;11380;50.822;15.790;2022-09-02T15:07:30;52.93;;;47.33;;
22425;SDS011;11380;50.822;15.790;2022-09-02T15:12:41;51.27;;;46.87;;
22425;SDS011;11380;50.822;15.790;2022-09-02T15:17:51;51.53;;;47.10;;
22425;SDS011;11380;50.822;15.790;2022-09-02T15:22:57;51.65;;;47.20;;
22425;SDS011;11380;50.822;15.790;2022-09-02T15:28:03;52.03;;;47.53;;
22425;SDS011;11380;50.822;15.790;2022-09-02T15:33:10;51.84;;;47.40;;
22425;SDS011;11380;50.822;15.790;2022-09-02T15:38:17;51.97;;;47.47;;
22425;SDS011;11380;50.822;15.790;2022-09-02T15:43:23;51.58;;;47.15;;
22425;SDS011;11380;50.822;15.790;2022-09-02T15:48:30;52.00;;;47.40;;
22425;SDS011;11380;50.822;15.790;2022-09-02T15:53:36;52.33;;;47.30;;
22425;SDS011;11380;50.822;15.790;2022-09-02T15:58:42;51.42;;;47.00;;
22425;SDS011;11380;50.822;15.790;2022-09-02T16:03:50;53.87;;;48.98;;
22425;SDS011;11380;50.822;15.790;2022-09-02T16:08:56;58.37;;;53.00;;
22425;SDS011;11380;50.822;15.790;2022-09-02T16:14:02;52.83;;;47.97;;
22425;SDS011;11380;50.822;15.790;2022-09-02T16:19:08;52.98;;;47.67;;
22425;SDS011;11380;50.822;15.790;2022-09-02T16:24:14;51.90;;;47.43;;
22425;SDS011;11380;50.822;15.790;2022-09-02T16:29:21;52.30;;;47.70;;
22425;SDS011;11380;50.822;15.790;2022-09-02T16:34:30;52.45;;;47.75;;
22425;SDS011;11380;50.822;15.790;2022-09-02T16:39:36;52.30;;;47.70;;
22425;SDS011;11380;50.822;15.790;2022-09-02T16:44:44;52.00;;;47.40;;
22425;SDS011;11380;50.822;15.790;2022-09-02T16:49:53;52.43;;;47.63;;
22425;SDS011;11380;50.822;15.790;2022-09-02T16:54:59;51.92;;;47.43;;
22425;SDS011;11380;50.822;15.790;2022-09-02T17:00:05;51.73;;;47.33;;
22425;SDS011;11380;50.822;15.790;2022-09-02T17:05:13;51.60;;;46.83;;
22425;SDS011;11380;50.822;15.790;2022-09-02T17:10:20;51.53;;;47.03;;
22425;SDS011;11380;50.822;15.790;2022-09-02T17:15:26;52.07;;;47.27;;
22425;SDS011;11380;50.822;15.790;2022-09-02T17:20:32;52.13;;;47.53;;
22425;SDS011;11380;50.822;15.790;2022-09-02T17:25:38;52.80;;;48.10;;
22425;SDS011;11380;50.822;15.790;2022-09-02T17:30:45;50.85;;;46.55;;
22425;SDS011;11380;50.822;15.790;2022-09-02T17:35:59;50.90;;;46.60;;
22425;SDS011;11380;50.822;15.790;2022-09-02T17:41:01;51.00;;;46.70;;
22425;SDS011;11380;50.822;15.790;2022-09-02T17:46:25;51.00;;;46.40;;
22425;SDS011;11380;50.822;15.790;2022-09-02T17:51:30;50.37;;;46.10;;
22425;SDS011;11380;50.822;15.790;2022-09-02T18:02:06;50.63;;;46.43;;
22425;SDS011;11380;50.822;15.790;2022-09-02T18:07:33;51.07;;;46.77;;
22425;SDS011;11380;50.822;15.790;2022-09-02T18:18:00;50.33;;;46.13;;
22425;SDS011;11380;50.822;15.790;2022-09-02T18:33:40;51.57;;;47.17;;
22425;SDS011;11380;50.822;15.790;2022-09-02T18:44:39;51.70;;;47.30;;
22425;SDS011;11380;50.822;15.790;2022-09-02T18:50:03;51.03;;;46.73;;
22425;SDS011;11380;50.822;15.790;2022-09-02T18:55:10;50.70;;;46.50;;
22425;SDS011;11380;50.822;15.790;2022-09-02T19:00:18;51.18;;;46.96;;
22425;SDS011;11380;50.822;15.790;2022-09-02T19:05:26;51.93;;;47.53;;
22425;SDS011;11380;50.822;15.790;2022-09-02T19:10:34;51.02;;;46.78;;
22425;SDS011;11380;50.822;15.790;2022-09-02T19:15:45;51.77;;;47.37;;
22425;SDS011;11380;50.822;15.790;2022-09-02T19:20:54;51.80;;;47.33;;
22425;SDS011;11380;50.822;15.790;2022-09-02T19:26:03;51.43;;;47.13;;
22425;SDS011;11380;50.822;15.790;2022-09-02T19:31:13;51.18;;;46.92;;
22425;SDS011;11380;50.822;15.790;2022-09-02T19:36:30;52.17;;;47.77;;
22425;SDS011;11380;50.822;15.790;2022-09-02T19:41:39;51.80;;;47.30;;
22425;SDS011;11380;50.822;15.790;2022-09-02T19:46:46;52.03;;;47.43;;
22425;SDS011;11380;50.822;15.790;2022-09-02T19:51:57;51.67;;;47.23;;
22425;SDS011;11380;50.822;15.790;2022-09-02T19:57:04;51.18;;;46.88;;
22425;SDS011;11380;50.822;15.790;2022-09-02T20:02:10;52.55;;;47.35;;
22425;SDS011;11380;50.822;15.790;2022-09-02T20:07:19;51.05;;;46.75;;
22425;SDS011;11380;50.822;15.790;2022-09-02T20:12:26;51.33;;;47.03;;
22425;SDS011;11380;50.822;15.790;2022-09-02T20:17:35;50.20;;;46.10;;
22425;SDS011;11380;50.822;15.790;2022-09-02T20:22:41;51.20;;;47.00;;
22425;SDS011;11380;50.822;15.790;2022-09-02T20:33:18;50.90;;;46.77;;
22425;SDS011;11380;50.822;15.790;2022-09-02T20:54:53;49.93;;;45.97;;
22425;SDS011;11380;50.822;15.790;2022-09-02T21:00:07;50.57;;;46.50;;
22425;SDS011;11380;50.822;15.790;2022-09-02T21:05:18;49.50;;;45.60;;
22425;SDS011;11380;50.822;15.790;2022-09-02T21:10:28;50.80;;;46.67;;
22425;SDS011;11380;50.822;15.790;2022-09-02T21:15:43;50.20;;;46.20;;
22425;SDS011;11380;50.822;15.790;2022-09-02T21:21:02;49.98;;;45.88;;
22425;SDS011;11380;50.822;15.790;2022-09-02T21:26:19;50.03;;;46.03;;
22425;SDS011;11380;50.822;15.790;2022-09-02T21:31:43;50.60;;;46.53;;
22425;SDS011;11380;50.822;15.790;2022-09-02T21:36:50;50.77;;;46.57;;
22425;SDS011;11380;50.822;15.790;2022-09-02T21:42:11;50.50;;;46.30;;
22425;SDS011;11380;50.822;15.790;2022-09-02T22:03:42;49.83;;;45.93;;
22425;SDS011;11380;50.822;15.790;2022-09-02T22:09:04;49.93;;;45.97;;
22425;SDS011;11380;50.822;15.790;2022-09-02T22:14:12;49.73;;;45.77;;
22425;SDS011;11380;50.822;15.790;2022-09-02T22:19:19;50.50;;;45.80;;
22425;SDS011;11380;50.822;15.790;2022-09-02T22:24:29;49.25;;;45.38;;
22425;SDS011;11380;50.822;15.790;2022-09-02T22:29:38;49.60;;;45.77;;
22425;SDS011;11380;50.822;15.790;2022-09-02T22:40:02;50.07;;;46.13;;
22425;SDS011;11380;50.822;15.790;2022-09-02T22:50:48;49.17;;;45.37;;
22425;SDS011;11380;50.822;15.790;2022-09-02T22:56:09;48.83;;;45.08;;
22425;SDS011;11380;50.822;15.790;2022-09-02T23:01:18;48.97;;;45.10;;
22425;SDS011;11380;50.822;15.790;2022-09-02T23:06:35;48.73;;;45.03;;
22425;SDS011;11380;50.822;15.790;2022-09-02T23:27:53;48.94;;;45.04;;
22425;SDS011;11380;50.822;15.790;2022-09-02T23:33:07;48.97;;;44.97;;
22425;SDS011;11380;50.822;15.790;2022-09-02T23:43:42;48.95;;;45.15;;
22425;SDS011;11380;50.822;15.790;2022-09-02T23:48:52;49.15;;;45.15;;
22425;SDS011;11380;50.822;15.790;2022-09-02T23:54:19;48.73;;;44.77;;
22425;SDS011;11380;50.822;15.790;2022-09-02T23:59:50;50.00;;;46.00;;
